createdAt,value
2018-08-23T00:01:29.652Z,26.30
2018-08-23T00:04:03.254Z,26.28
2018-08-23T00:06:31.979Z,26.25
2018-08-23T00:09:00.539Z,26.23
2018-08-23T00:11:31.754Z,26.19
2018-08-23T00:14:00.301Z,26.16
2018-08-23T00:16:35.295Z,26.14
2018-08-23T00:19:04.780Z,26.13
2018-08-23T00:21:37.916Z,26.12
2018-08-23T00:24:09.805Z,26.11
2018-08-23T00:26:39.809Z,26.11
2018-08-23T00:29:14.761Z,26.07
2018-08-23T00:31:43.397Z,26.04
2018-08-23T00:34:12.163Z,26.00
2018-08-23T00:36:40.754Z,26.00
2018-08-23T00:39:10.232Z,25.99
2018-08-23T00:41:38.980Z,25.99
2018-08-23T00:44:07.577Z,26.01
2018-08-23T00:46:36.466Z,26.04
2018-08-23T00:49:05.128Z,26.07
2018-08-23T00:51:38.066Z,26.09
2018-08-23T00:54:06.805Z,26.09
2018-08-23T00:56:35.440Z,26.10
2018-08-23T00:59:04.529Z,26.07
2018-08-23T01:01:33.728Z,26.04
2018-08-23T01:04:02.265Z,26.01
2018-08-23T01:06:40.124Z,25.98
2018-08-23T01:09:10.753Z,25.93
2018-08-23T01:11:40.270Z,25.85
2018-08-23T01:14:09.427Z,25.79
2018-08-23T01:16:38.083Z,25.73
2018-08-23T01:19:12.020Z,25.69
2018-08-23T01:22:00.483Z,25.60
2018-08-23T01:24:30.859Z,25.50
2018-08-23T01:26:59.462Z,25.44
2018-08-23T01:29:29.218Z,25.45
2018-08-23T01:32:16.825Z,25.41
2018-08-23T01:34:45.453Z,25.33
2018-08-23T01:37:24.642Z,25.31
2018-08-23T01:39:53.268Z,25.27
2018-08-23T01:42:25.015Z,25.23
2018-08-23T01:44:53.638Z,25.05
2018-08-23T01:47:22.359Z,25.18
2018-08-23T01:49:51.009Z,25.13
2018-08-23T01:52:19.639Z,25.06
2018-08-23T01:54:48.198Z,25.00
2018-08-23T01:57:21.308Z,24.96
2018-08-23T01:59:49.897Z,24.93
2018-08-23T02:02:18.559Z,24.88
2018-08-23T02:04:48.160Z,24.85
2018-08-23T02:07:16.771Z,24.81
2018-08-23T02:09:45.303Z,24.78
2018-08-23T02:12:14.014Z,24.76
2018-08-23T02:14:45.805Z,24.71
2018-08-23T02:17:15.022Z,24.69
2018-08-23T02:19:48.153Z,24.65
2018-08-23T02:22:16.835Z,24.62
2018-08-23T02:24:49.116Z,24.61
2018-08-23T02:27:19.345Z,24.57
2018-08-23T02:29:49.546Z,24.54
2018-08-23T02:32:18.158Z,24.49
2018-08-23T02:34:47.871Z,24.43
2018-08-23T02:37:17.420Z,24.38
2018-08-23T02:39:47.705Z,24.33
2018-08-23T02:42:18.135Z,24.28
2018-08-23T02:44:47.766Z,24.22
2018-08-23T02:47:16.813Z,24.18
2018-08-23T02:49:45.415Z,24.13
2018-08-23T02:52:14.127Z,24.08
2018-08-23T02:54:42.815Z,24.07
2018-08-23T02:57:12.267Z,24.05
2018-08-23T02:59:40.872Z,24.03
2018-08-23T03:02:14.111Z,24.01
2018-08-23T03:04:42.798Z,23.99
2018-08-23T03:07:11.424Z,23.95
2018-08-23T03:09:41.112Z,23.92
2018-08-23T03:12:13.010Z,23.89
2018-08-23T03:14:42.034Z,23.86
2018-08-23T03:17:20.812Z,23.86
2018-08-23T03:20:18.525Z,23.84
2018-08-23T03:22:48.496Z,23.74
2018-08-23T03:25:18.512Z,23.72
2018-08-23T03:27:47.079Z,23.75
2018-08-23T03:30:16.880Z,23.75
2018-08-23T03:32:45.508Z,23.75
2018-08-23T03:35:14.079Z,23.75
2018-08-23T03:37:42.619Z,23.73
2018-08-23T03:40:12.631Z,23.70
2018-08-23T03:42:41.429Z,23.67
2018-08-23T03:45:15.703Z,23.63
2018-08-23T03:47:49.610Z,23.61
2018-08-23T03:50:18.411Z,23.57
2018-08-23T03:52:48.360Z,23.55
2018-08-23T03:55:20.006Z,23.54
2018-08-23T03:57:52.675Z,23.52
2018-08-23T04:00:27.040Z,23.51
2018-08-23T04:02:56.082Z,23.47
2018-08-23T04:05:24.674Z,23.46
2018-08-23T04:07:53.226Z,23.44
2018-08-23T04:10:21.887Z,23.42
2018-08-23T04:12:50.495Z,23.40
2018-08-23T04:15:27.978Z,23.39
2018-08-23T04:17:56.668Z,23.39
2018-08-23T04:20:25.378Z,23.38
2018-08-23T04:22:54.106Z,23.36
2018-08-23T04:25:22.791Z,23.32
2018-08-23T04:27:51.425Z,23.29
2018-08-23T04:30:20.277Z,23.27
2018-08-23T04:32:49.658Z,23.25
2018-08-23T04:35:23.528Z,23.25
2018-08-23T04:37:52.515Z,23.24
2018-08-23T04:40:21.234Z,23.23
2018-08-23T04:42:49.944Z,23.24
2018-08-23T04:45:26.708Z,23.23
2018-08-23T04:48:00.576Z,23.20
2018-08-23T04:50:29.335Z,23.20
2018-08-23T04:52:58.124Z,23.19
2018-08-23T04:55:27.317Z,23.21
2018-08-23T04:57:56.824Z,23.24
2018-08-23T05:00:25.982Z,23.28
2018-08-23T05:02:54.671Z,23.30
2018-08-23T05:05:23.254Z,23.34
2018-08-23T05:07:52.113Z,23.36
2018-08-23T05:10:20.684Z,23.40
2018-08-23T05:12:49.276Z,23.43
2018-08-23T05:15:17.883Z,23.47
2018-08-23T05:17:46.450Z,23.52
2018-08-23T05:20:15.225Z,23.57
2018-08-23T05:22:51.692Z,23.62
2018-08-23T05:25:22.389Z,23.64
2018-08-23T05:28:07.313Z,23.65
2018-08-23T05:30:35.872Z,23.65
2018-08-23T05:33:21.251Z,23.69
2018-08-23T05:35:49.910Z,23.77
2018-08-23T05:38:19.266Z,23.84
2018-08-23T05:40:53.999Z,23.95
2018-08-23T05:43:23.401Z,24.04
2018-08-23T05:45:54.207Z,24.12
2018-08-23T05:48:32.098Z,24.23
2018-08-23T05:51:06.666Z,24.31
2018-08-23T05:53:39.640Z,24.41
2018-08-23T05:56:08.764Z,24.54
2018-08-23T05:58:37.334Z,24.65
2018-08-23T06:01:06.055Z,24.78
2018-08-23T06:03:36.090Z,24.91
2018-08-23T06:06:04.719Z,25.03
2018-08-23T06:08:33.364Z,25.17
2018-08-23T06:11:06.109Z,25.16
2018-08-23T06:13:34.788Z,25.45
2018-08-23T06:16:03.408Z,25.64
2018-08-23T06:18:31.941Z,25.96
2018-08-23T06:21:00.730Z,26.37
2018-08-23T06:26:43.505Z,27.27
2018-08-23T06:29:15.904Z,27.71
2018-08-23T06:31:50.634Z,28.09
2018-08-23T06:34:19.257Z,28.49
2018-08-23T06:36:48.230Z,28.90
2018-08-23T06:39:16.836Z,29.22
2018-08-23T06:41:45.672Z,29.56
2018-08-23T06:44:14.311Z,29.90
2018-08-23T06:46:42.913Z,30.27
2018-08-23T06:49:11.496Z,30.63
2018-08-23T06:51:40.193Z,30.99
2018-08-23T06:54:08.815Z,31.38
2018-08-23T06:56:38.696Z,31.74
2018-08-23T06:59:07.699Z,32.12
2018-08-23T07:01:41.546Z,32.47
2018-08-23T07:04:14.068Z,32.92
2018-08-23T07:06:42.803Z,33.36
2018-08-23T07:09:15.604Z,33.84
2018-08-23T07:11:44.394Z,34.27
2018-08-23T07:14:16.245Z,34.69
2018-08-23T07:16:46.209Z,35.08
2018-08-23T07:19:33.335Z,35.48
2018-08-23T07:22:02.940Z,35.88
2018-08-23T07:24:42.215Z,36.22
2018-08-23T07:27:11.929Z,36.58
2018-08-23T07:29:40.588Z,36.86
2018-08-23T07:32:13.454Z,37.10
2018-08-23T07:34:51.523Z,37.36
2018-08-23T07:37:20.951Z,37.68
2018-08-23T07:39:56.970Z,37.96
2018-08-23T07:42:28.154Z,38.20
2018-08-23T07:44:57.248Z,38.43
2018-08-23T07:47:26.027Z,38.58
2018-08-23T07:49:56.704Z,38.87
2018-08-23T07:52:26.314Z,39.21
2018-08-23T07:54:54.879Z,39.53
2018-08-23T07:57:23.487Z,39.91
2018-08-23T07:59:59.355Z,40.15
2018-08-23T08:02:28.585Z,40.37
2018-08-23T08:04:57.808Z,40.62
2018-08-23T08:07:27.768Z,40.95
2018-08-23T08:09:57.084Z,41.29
2018-08-23T08:12:39.230Z,41.58
2018-08-23T08:15:11.780Z,41.88
2018-08-23T08:17:40.349Z,42.18
2018-08-23T08:20:10.410Z,42.44
2018-08-23T08:22:39.258Z,42.68
2018-08-23T08:25:13.030Z,42.92
2018-08-23T08:27:41.756Z,43.09
2018-08-23T08:30:12.174Z,43.13
2018-08-23T08:32:40.956Z,43.30
2018-08-23T08:35:23.827Z,43.61
2018-08-23T08:37:52.473Z,43.92
2018-08-23T08:40:23.582Z,44.05
2018-08-23T08:42:52.146Z,44.00
2018-08-23T08:45:20.732Z,44.26
2018-08-23T08:47:49.349Z,44.52
2018-08-23T08:50:18.006Z,44.71
2018-08-23T08:52:46.562Z,44.61
2018-08-23T08:55:16.964Z,44.44
2018-08-23T08:57:47.645Z,44.36
2018-08-23T09:00:16.067Z,43.93
2018-08-23T09:02:44.814Z,43.42
2018-08-23T09:05:13.391Z,42.85
2018-08-23T09:07:44.177Z,42.88
2018-08-23T09:10:12.761Z,43.50
2018-08-23T09:12:47.760Z,44.16
2018-08-23T09:15:16.280Z,44.92
2018-08-23T09:17:45.872Z,45.03
2018-08-23T09:20:17.792Z,44.12
2018-08-23T09:22:50.948Z,43.07
2018-08-23T09:25:26.128Z,43.25
2018-08-23T09:27:54.718Z,43.03
2018-08-23T09:30:27.559Z,42.75
2018-08-23T09:32:56.410Z,42.46
2018-08-23T09:35:29.539Z,42.47
2018-08-23T09:38:00.358Z,43.22
2018-08-23T09:40:30.013Z,43.37
2018-08-23T09:43:03.067Z,42.73
2018-08-23T09:45:32.856Z,42.19
2018-08-23T09:48:01.346Z,41.92
2018-08-23T09:50:29.962Z,41.91
2018-08-23T09:52:58.620Z,42.37
2018-08-23T09:55:30.951Z,43.41
2018-08-23T09:57:59.819Z,44.16
2018-08-23T10:00:33.941Z,44.67
2018-08-23T10:03:07.665Z,45.38
2018-08-23T10:05:47.981Z,45.99
2018-08-23T10:08:23.331Z,45.39
2018-08-23T10:10:57.017Z,44.40
2018-08-23T10:13:30.785Z,44.65
2018-08-23T10:18:10.519Z,44.59
2018-08-23T10:20:46.308Z,43.75
2018-08-23T10:23:20.271Z,43.06
2018-08-23T10:25:50.083Z,42.25
2018-08-23T10:28:25.196Z,42.69
2018-08-23T10:30:54.226Z,43.49
2018-08-23T10:33:22.755Z,44.29
2018-08-23T10:35:53.649Z,45.30
2018-08-23T10:38:23.659Z,46.16
2018-08-23T10:40:53.346Z,46.16
2018-08-23T10:43:27.176Z,46.53
2018-08-23T10:45:59.921Z,47.01
2018-08-23T10:48:28.440Z,47.86
2018-08-23T10:50:57.095Z,48.31
2018-08-23T10:53:25.707Z,48.62
2018-08-23T10:55:54.243Z,48.71
2018-08-23T10:58:22.928Z,49.28
2018-08-23T11:00:51.582Z,49.65
2018-08-23T11:03:20.144Z,49.77
2018-08-23T11:05:48.660Z,50.07
2018-08-23T11:08:20.200Z,50.29
2018-08-23T11:10:53.851Z,48.95
2018-08-23T11:13:53.070Z,47.62
2018-08-23T11:16:26.926Z,47.09
2018-08-23T11:19:00.791Z,46.21
2018-08-23T11:21:29.472Z,45.44
2018-08-23T11:23:58.253Z,45.40
2018-08-23T11:26:26.867Z,46.44
2018-08-23T11:28:55.627Z,47.64
2018-08-23T11:31:30.217Z,48.57
2018-08-23T11:33:58.850Z,48.35
2018-08-23T11:36:27.467Z,48.72
2018-08-23T11:38:56.151Z,49.27
2018-08-23T11:41:24.848Z,49.50
2018-08-23T11:43:53.485Z,49.88
2018-08-23T11:46:23.096Z,50.03
2018-08-23T11:48:51.940Z,49.24
2018-08-23T11:51:20.997Z,48.26
2018-08-23T11:53:49.736Z,47.24
2018-08-23T11:56:18.383Z,46.12
2018-08-23T11:58:46.975Z,45.01
2018-08-23T12:01:17.487Z,43.82
2018-08-23T12:03:46.409Z,43.16
2018-08-23T12:06:16.390Z,42.32
2018-08-23T12:08:45.097Z,41.71
2018-08-23T12:11:13.679Z,41.08
2018-08-23T12:13:46.793Z,40.55
2018-08-23T12:16:15.427Z,40.22
2018-08-23T12:18:44.083Z,39.93
2018-08-23T12:21:12.664Z,39.61
2018-08-23T12:23:41.246Z,39.26
2018-08-23T12:26:09.990Z,38.87
2018-08-23T12:28:43.567Z,38.41
2018-08-23T12:31:12.158Z,38.13
2018-08-23T12:33:40.684Z,38.02
2018-08-23T12:36:09.932Z,37.97
2018-08-23T12:38:43.708Z,37.94
2018-08-23T12:41:17.525Z,37.88
2018-08-23T12:43:47.791Z,37.84
2018-08-23T12:46:17.021Z,37.75
2018-08-23T12:48:46.311Z,37.72
2018-08-23T12:51:14.940Z,37.71
2018-08-23T12:53:43.588Z,35.93
2018-08-23T12:56:12.280Z,37.40
2018-08-23T12:58:41.902Z,37.31
2018-08-23T13:01:10.515Z,37.26
2018-08-23T13:03:39.101Z,37.14
2018-08-23T13:06:07.702Z,37.20
2018-08-23T13:08:36.338Z,37.18
2018-08-23T13:11:04.985Z,37.10
2018-08-23T13:13:33.436Z,37.05
2018-08-23T13:16:02.023Z,36.99
2018-08-23T13:18:30.567Z,36.89
2018-08-23T13:20:59.084Z,36.66
2018-08-23T13:23:27.806Z,36.52
2018-08-23T13:25:57.505Z,36.35
2018-08-23T13:28:27.347Z,36.13
2018-08-23T13:30:55.875Z,36.13
2018-08-23T13:33:25.652Z,36.14
2018-08-23T13:35:54.223Z,36.13
2018-08-23T13:38:22.714Z,36.16
2018-08-23T13:40:51.300Z,36.25
2018-08-23T13:43:19.880Z,36.24
2018-08-23T13:45:48.683Z,36.16
2018-08-23T13:48:17.624Z,36.14
2018-08-23T13:50:46.176Z,36.12
2018-08-23T13:53:14.754Z,36.12
2018-08-23T13:55:43.354Z,34.01
2018-08-23T13:58:11.877Z,36.00
2018-08-23T14:00:41.557Z,35.91
2018-08-23T14:03:10.947Z,35.73
2018-08-23T14:05:40.627Z,35.65
2018-08-23T14:08:09.605Z,35.57
2018-08-23T14:10:38.146Z,35.51
2018-08-23T14:13:06.753Z,35.44
2018-08-23T14:15:40.479Z,35.42
2018-08-23T14:18:09.123Z,35.41
2018-08-23T14:20:37.728Z,35.38
2018-08-23T14:23:06.205Z,35.31
2018-08-23T14:25:34.742Z,35.24
2018-08-23T14:28:03.234Z,35.24
2018-08-23T14:30:31.743Z,35.19
2018-08-23T14:33:00.372Z,35.13
2018-08-23T14:35:29.084Z,35.11
2018-08-23T14:37:57.681Z,35.10
2018-08-23T14:40:26.239Z,34.97
2018-08-23T14:42:54.755Z,34.85
2018-08-23T14:45:28.552Z,34.71
2018-08-23T14:48:02.484Z,34.59
2018-08-23T14:50:31.354Z,34.49
2018-08-23T14:52:59.879Z,34.45
2018-08-23T14:55:33.506Z,33.37
2018-08-23T14:58:02.155Z,34.33
2018-08-23T15:00:31.173Z,34.30
2018-08-23T15:02:59.937Z,34.26
2018-08-23T15:05:28.600Z,34.29
2018-08-23T15:07:57.172Z,34.30
2018-08-23T15:10:25.916Z,34.26
2018-08-23T15:12:54.525Z,34.11
2018-08-23T15:15:28.478Z,34.00
2018-08-23T15:17:57.215Z,33.93
2018-08-23T15:20:25.807Z,33.89
2018-08-23T15:22:54.586Z,33.80
2018-08-23T15:25:23.311Z,33.69
2018-08-23T15:27:51.875Z,33.54
2018-08-23T15:30:20.513Z,33.41
2018-08-23T15:32:49.182Z,33.31
2018-08-23T15:35:17.822Z,33.28
2018-08-23T15:37:46.428Z,33.26
2018-08-23T15:40:15.076Z,33.29
2018-08-23T15:42:43.649Z,33.28
2018-08-23T15:45:12.243Z,33.26
2018-08-23T15:47:40.963Z,33.23
2018-08-23T15:50:09.694Z,33.01
2018-08-23T15:52:38.383Z,33.19
2018-08-23T15:55:07.377Z,33.17
2018-08-23T15:57:38.058Z,32.02
2018-08-23T16:00:07.256Z,33.07
2018-08-23T16:02:35.817Z,33.02
2018-08-23T16:05:04.440Z,32.93
2018-08-23T16:07:33.033Z,32.82
2018-08-23T16:10:02.081Z,32.76
2018-08-23T16:12:30.733Z,32.67
2018-08-23T16:14:59.264Z,32.59
2018-08-23T16:17:32.886Z,32.51
2018-08-23T16:20:06.818Z,32.50
2018-08-23T16:22:35.431Z,32.46
2018-08-23T16:25:04.058Z,32.40
2018-08-23T16:27:32.659Z,32.33
2018-08-23T16:30:01.171Z,32.26
2018-08-23T16:32:34.127Z,32.21
2018-08-23T16:35:02.777Z,32.15
2018-08-23T16:37:32.342Z,32.07
2018-08-23T16:40:01.046Z,32.02
2018-08-23T16:42:30.235Z,31.95
2018-08-23T16:44:58.903Z,31.89
2018-08-23T16:47:27.730Z,31.85
2018-08-23T16:49:56.493Z,31.82
2018-08-23T16:52:25.200Z,31.79
2018-08-23T16:54:53.822Z,31.76
2018-08-23T16:57:22.428Z,31.72
2018-08-23T16:59:51.139Z,31.64
2018-08-23T17:02:19.886Z,31.59
2018-08-23T17:04:49.263Z,31.53
2018-08-23T17:07:18.351Z,31.44
2018-08-23T17:09:47.094Z,31.37
2018-08-23T17:12:16.102Z,31.30
2018-08-23T17:14:44.782Z,31.24
2018-08-23T17:17:18.717Z,31.11
2018-08-23T17:22:31.195Z,31.00
2018-08-23T17:25:00.146Z,30.94
2018-08-23T17:27:29.012Z,30.90
2018-08-23T17:29:57.807Z,30.80
2018-08-23T17:32:26.475Z,30.73
2018-08-23T17:34:55.751Z,30.63
2018-08-23T17:37:24.464Z,30.55
2018-08-23T17:39:53.530Z,30.47
2018-08-23T17:42:26.518Z,30.41
2018-08-23T17:44:55.154Z,30.34
2018-08-23T17:47:24.217Z,30.20
2018-08-23T17:49:53.341Z,30.11
2018-08-23T17:52:22.093Z,30.03
2018-08-23T17:54:51.014Z,29.94
2018-08-23T17:57:19.627Z,29.88
2018-08-23T17:59:48.433Z,29.79
2018-08-23T18:02:17.773Z,29.71
2018-08-23T18:04:46.638Z,29.63
2018-08-23T18:07:15.331Z,29.55
2018-08-23T18:09:44.035Z,29.47
2018-08-23T18:12:12.843Z,29.39
2018-08-23T18:14:41.590Z,29.30
2018-08-23T18:17:10.525Z,29.21
2018-08-23T18:19:39.353Z,29.11
2018-08-23T18:22:08.004Z,29.01
2018-08-23T18:24:36.733Z,28.92
2018-08-23T18:27:05.580Z,28.85
2018-08-23T18:29:34.324Z,28.76
2018-08-23T18:32:03.103Z,28.65
2018-08-23T18:34:31.956Z,28.60
2018-08-23T18:37:00.570Z,28.53
2018-08-23T18:39:29.159Z,28.48
2018-08-23T18:41:57.856Z,28.39
2018-08-23T18:44:26.456Z,28.32
2018-08-23T18:46:55.178Z,28.24
2018-08-23T18:49:23.794Z,28.18
2018-08-23T18:51:52.315Z,28.13
2018-08-23T18:54:21.017Z,28.08
2018-08-23T18:56:49.737Z,28.03
2018-08-23T18:59:18.484Z,26.66
2018-08-23T19:01:47.227Z,27.92
2018-08-23T19:04:16.031Z,27.85
2018-08-23T19:06:44.623Z,27.81
2018-08-23T19:09:14.314Z,27.77
2018-08-23T19:11:43.237Z,27.73
2018-08-23T19:14:11.946Z,27.67
2018-08-23T19:16:45.635Z,27.63
2018-08-23T19:19:14.340Z,27.58
2018-08-23T19:21:43.395Z,27.53
2018-08-23T19:24:12.384Z,27.50
2018-08-23T19:26:41.890Z,27.43
2018-08-23T19:29:10.947Z,27.40
2018-08-23T19:31:39.675Z,27.37
2018-08-23T19:34:08.446Z,27.32
2018-08-23T19:36:37.267Z,27.29
2018-08-23T19:39:12.582Z,27.26
2018-08-23T19:41:41.324Z,27.24
2018-08-23T19:44:09.923Z,27.18
2018-08-23T19:46:43.835Z,27.16
2018-08-23T19:49:17.698Z,27.14
2018-08-23T19:51:46.320Z,27.10
2018-08-23T19:54:15.025Z,27.06
2018-08-23T19:56:43.688Z,27.02
2018-08-23T19:59:12.442Z,26.97
2018-08-23T20:01:41.033Z,26.93
2018-08-23T20:04:09.660Z,26.84
2018-08-23T20:06:38.380Z,26.79
2018-08-23T20:09:08.785Z,26.73
2018-08-23T20:11:37.325Z,26.67
2018-08-23T20:14:05.936Z,26.64
2018-08-23T20:16:34.588Z,26.60
2018-08-23T20:19:03.993Z,26.57
2018-08-23T20:21:32.549Z,26.54
2018-08-23T20:24:01.218Z,26.50
2018-08-23T20:26:29.900Z,26.48
2018-08-23T20:28:59.293Z,26.46
2018-08-23T20:31:28.102Z,26.42
2018-08-23T20:33:58.359Z,26.38
2018-08-23T20:36:28.031Z,26.37
2018-08-23T20:38:57.106Z,26.34
2018-08-23T20:41:30.529Z,26.31
2018-08-23T20:43:59.183Z,26.29
2018-08-23T20:46:27.819Z,26.26
2018-08-23T20:48:56.322Z,26.24
2018-08-23T20:51:24.838Z,26.22
2018-08-23T20:53:53.472Z,26.21
2018-08-23T20:56:21.955Z,26.19
2018-08-23T20:58:50.542Z,26.16
2018-08-23T21:01:19.078Z,26.14
2018-08-23T21:03:47.761Z,26.13
2018-08-23T21:06:16.388Z,26.11
2018-08-23T21:08:45.023Z,26.11
2018-08-23T21:11:13.598Z,26.06
2018-08-23T21:13:42.191Z,26.04
2018-08-23T21:16:10.915Z,26.01
2018-08-23T21:18:39.553Z,25.99
2018-08-23T21:21:08.293Z,25.96
2018-08-23T21:23:36.940Z,25.93
2018-08-23T21:26:05.627Z,25.92
2018-08-23T21:28:34.305Z,25.89
2018-08-23T21:31:03.608Z,25.87
2018-08-23T21:33:32.159Z,25.82
2018-08-23T21:36:00.768Z,25.80
2018-08-23T21:38:29.410Z,25.76
2018-08-23T21:40:58.096Z,25.74
2018-08-23T21:43:26.654Z,25.72
2018-08-23T21:45:55.190Z,25.71
2018-08-23T21:48:23.844Z,25.71
2018-08-23T21:50:52.485Z,25.70
2018-08-23T21:53:21.059Z,25.67
2018-08-23T21:55:49.710Z,25.64
2018-08-23T21:58:18.293Z,25.61
2018-08-23T22:00:51.985Z,25.59
2018-08-23T22:03:20.579Z,25.57
2018-08-23T22:05:49.376Z,25.55
2018-08-23T22:08:17.969Z,25.53
2018-08-23T22:10:46.551Z,25.52
2018-08-23T22:13:15.154Z,25.50
2018-08-23T22:15:46.744Z,25.49
2018-08-23T22:18:15.859Z,25.48
2018-08-23T22:20:44.524Z,25.44
2018-08-23T22:23:13.543Z,25.42
2018-08-23T22:25:42.267Z,25.38
2018-08-23T22:28:11.306Z,25.36
2018-08-23T22:30:40.607Z,25.36
2018-08-23T22:33:10.300Z,25.34
2018-08-23T22:35:38.956Z,25.34
2018-08-23T22:38:07.922Z,25.35
2018-08-23T22:40:36.924Z,25.34
2018-08-23T22:43:05.578Z,25.34
2018-08-23T22:45:34.212Z,25.33
2018-08-23T22:48:02.864Z,25.17
2018-08-23T22:50:31.594Z,25.30
2018-08-23T22:53:00.158Z,25.28
2018-08-23T22:55:28.827Z,25.26
2018-08-23T22:57:57.652Z,25.27
2018-08-23T23:00:42.632Z,25.26
2018-08-23T23:03:16.537Z,25.26
2018-08-23T23:05:45.303Z,25.23
2018-08-23T23:08:13.909Z,25.24
2018-08-23T23:10:42.706Z,25.24
2018-08-23T23:13:11.356Z,25.26
2018-08-23T23:15:40.016Z,25.30
2018-08-23T23:18:08.626Z,25.34
2018-08-23T23:20:37.283Z,25.39
2018-08-23T23:23:05.923Z,25.45
2018-08-23T23:25:34.558Z,25.49
2018-08-23T23:28:03.125Z,25.52
2018-08-23T23:30:31.711Z,25.55
2018-08-23T23:33:00.293Z,25.57
2018-08-23T23:35:28.880Z,25.55
2018-08-23T23:37:57.446Z,25.53
2018-08-23T23:40:26.010Z,25.52
2018-08-23T23:42:54.673Z,25.46
2018-08-23T23:45:23.328Z,25.48
2018-08-23T23:47:51.947Z,25.49
2018-08-23T23:50:20.669Z,25.53
2018-08-23T23:52:49.269Z,25.56
2018-08-23T23:55:17.911Z,25.59
2018-08-23T23:57:46.519Z,25.61
